sensor_id;sensor_type;location;lat;lon;timestamp;pressure;altitude;pressure_sealevel;temperature;humidity
55424;BME280;41294;42.666;23.350;2023-06-22T00:02:13;95332.66;;;19.29;100.00
55424;BME280;41294;42.666;23.350;2023-06-22T00:04:39;95334.63;;;19.34;100.00
55424;BME280;41294;42.666;23.350;2023-06-22T00:07:04;95335.56;;;19.31;100.00
55424;BME280;41294;42.666;23.350;2023-06-22T00:09:31;95336.81;;;19.46;100.00
55424;BME280;41294;42.666;23.350;2023-06-22T00:11:56;95337.53;;;19.47;100.00
55424;BME280;41294;42.666;23.350;2023-06-22T00:14:21;95336.56;;;19.39;100.00
55424;BME280;41294;42.666;23.350;2023-06-22T00:16:47;95337.53;;;19.25;100.00
55424;BME280;41294;42.666;23.350;2023-06-22T00:19:17;95333.13;;;19.22;100.00
55424;BME280;41294;42.666;23.350;2023-06-22T00:21:44;95329.97;;;19.29;100.00
55424;BME280;41294;42.666;23.350;2023-06-22T00:24:12;95321.25;;;19.28;100.00
55424;BME280;41294;42.666;23.350;2023-06-22T00:26:37;95324.84;;;19.14;100.00
55424;BME280;41294;42.666;23.350;2023-06-22T00:29:03;95315.38;;;19.08;100.00
55424;BME280;41294;42.666;23.350;2023-06-22T00:31:28;95312.97;;;19.15;100.00
55424;BME280;41294;42.666;23.350;2023-06-22T00:33:53;95304.94;;;19.10;100.00
55424;BME280;41294;42.666;23.350;2023-06-22T00:36:19;95304.00;;;19.18;100.00
55424;BME280;41294;42.666;23.350;2023-06-22T00:38:44;95311.78;;;19.22;100.00
55424;BME280;41294;42.666;23.350;2023-06-22T00:41:10;95313.47;;;19.19;100.00
55424;BME280;41294;42.666;23.350;2023-06-22T00:43:35;95303.75;;;19.16;100.00
55424;BME280;41294;42.666;23.350;2023-06-22T00:46:01;95314.88;;;19.04;100.00
55424;BME280;41294;42.666;23.350;2023-06-22T00:48:26;95305.63;;;18.94;100.00
55424;BME280;41294;42.666;23.350;2023-06-22T00:50:52;95301.03;;;18.95;100.00
55424;BME280;41294;42.666;23.350;2023-06-22T00:53:19;95305.66;;;18.99;100.00
55424;BME280;41294;42.666;23.350;2023-06-22T00:55:45;95309.75;;;18.95;100.00
55424;BME280;41294;42.666;23.350;2023-06-22T00:58:12;95316.78;;;18.87;100.00
55424;BME280;41294;42.666;23.350;2023-06-22T01:00:39;95309.19;;;18.69;100.00
55424;BME280;41294;42.666;23.350;2023-06-22T01:03:05;95319.63;;;18.73;100.00
55424;BME280;41294;42.666;23.350;2023-06-22T01:05:34;95314.84;;;18.82;100.00
55424;BME280;41294;42.666;23.350;2023-06-22T01:10:33;95312.16;;;18.93;100.00
55424;BME280;41294;42.666;23.350;2023-06-22T01:13:05;95314.09;;;18.87;100.00
55424;BME280;41294;42.666;23.350;2023-06-22T01:15:39;95317.03;;;19.00;100.00
55424;BME280;41294;42.666;23.350;2023-06-22T01:18:05;95324.31;;;18.94;100.00
55424;BME280;41294;42.666;23.350;2023-06-22T01:20:34;95320.66;;;18.92;100.00
55424;BME280;41294;42.666;23.350;2023-06-22T01:26:42;95328.13;;;18.71;100.00
55424;BME280;41294;42.666;23.350;2023-06-22T01:28:46;95330.06;;;18.76;100.00
55424;BME280;41294;42.666;23.350;2023-06-22T01:31:15;95327.19;;;18.85;100.00
55424;BME280;41294;42.666;23.350;2023-06-22T01:33:44;95329.38;;;18.92;100.00
55424;BME280;41294;42.666;23.350;2023-06-22T01:36:10;95331.06;;;18.84;100.00
55424;BME280;41294;42.666;23.350;2023-06-22T01:38:37;95329.38;;;18.81;100.00
55424;BME280;41294;42.666;23.350;2023-06-22T01:41:03;95324.25;;;18.83;100.00
55424;BME280;41294;42.666;23.350;2023-06-22T01:43:29;95325.97;;;18.86;100.00
55424;BME280;41294;42.666;23.350;2023-06-22T01:45:56;95328.16;;;18.82;100.00
55424;BME280;41294;42.666;23.350;2023-06-22T01:48:23;95329.63;;;18.89;100.00
55424;BME280;41294;42.666;23.350;2023-06-22T01:50:49;95335.19;;;18.85;100.00
55424;BME280;41294;42.666;23.350;2023-06-22T01:53:14;95339.56;;;18.83;100.00
55424;BME280;41294;42.666;23.350;2023-06-22T01:55:40;95344.19;;;18.82;100.00
55424;BME280;41294;42.666;23.350;2023-06-22T01:58:05;95341.25;;;18.80;100.00
55424;BME280;41294;42.666;23.350;2023-06-22T02:00:33;95341.25;;;18.80;100.00
55424;BME280;41294;42.666;23.350;2023-06-22T02:03:05;95343.91;;;18.80;100.00
55424;BME280;41294;42.666;23.350;2023-06-22T02:05:39;95349.22;;;18.69;100.00
55424;BME280;41294;42.666;23.350;2023-06-22T02:08:10;95344.13;;;18.71;100.00
55424;BME280;41294;42.666;23.350;2023-06-22T02:10:38;95344.38;;;18.73;100.00
55424;BME280;41294;42.666;23.350;2023-06-22T02:13:07;95354.81;;;18.77;100.00
55424;BME280;41294;42.666;23.350;2023-06-22T02:15:33;95344.38;;;18.73;100.00
55424;BME280;41294;42.666;23.350;2023-06-22T02:17:59;95345.13;;;18.79;100.00
55424;BME280;41294;42.666;23.350;2023-06-22T02:20:25;95333.25;;;18.80;100.00
55424;BME280;41294;42.666;23.350;2023-06-22T02:22:50;95336.63;;;18.75;100.00
55424;BME280;41294;42.666;23.350;2023-06-22T02:25:16;95332.81;;;18.34;100.00
55424;BME280;41294;42.666;23.350;2023-06-22T02:27:41;95344.03;;;18.49;100.00
55424;BME280;41294;42.666;23.350;2023-06-22T02:30:09;95347.44;;;18.50;100.00
55424;BME280;41294;42.666;23.350;2023-06-22T02:32:35;95348.06;;;18.34;100.00
55424;BME280;41294;42.666;23.350;2023-06-22T02:35:00;95335.91;;;18.22;100.00
55424;BME280;41294;42.666;23.350;2023-06-22T02:37:29;95336.19;;;18.29;100.00
55424;BME280;41294;42.666;23.350;2023-06-22T02:39:54;95332.31;;;18.36;100.00
55424;BME280;41294;42.666;23.350;2023-06-22T02:42:20;95341.28;;;18.38;100.00
55424;BME280;41294;42.666;23.350;2023-06-22T02:44:47;95345.47;;;18.45;100.00
55424;BME280;41294;42.666;23.350;2023-06-22T02:47:12;95346.69;;;18.49;100.00
55424;BME280;41294;42.666;23.350;2023-06-22T02:49:38;95348.16;;;18.50;100.00
55424;BME280;41294;42.666;23.350;2023-06-22T02:52:03;95350.34;;;18.46;100.00
55424;BME280;41294;42.666;23.350;2023-06-22T02:54:29;95347.66;;;18.46;100.00
55424;BME280;41294;42.666;23.350;2023-06-22T02:56:54;95350.25;;;18.35;100.00
55424;BME280;41294;42.666;23.350;2023-06-22T02:59:20;95348.22;;;18.19;100.00
55424;BME280;41294;42.666;23.350;2023-06-22T03:01:49;95347.56;;;18.30;100.00
55424;BME280;41294;42.666;23.350;2023-06-22T03:04:15;95353.44;;;18.39;100.00
55424;BME280;41294;42.666;23.350;2023-06-22T03:06:41;95353.69;;;18.41;100.00
55424;BME280;41294;42.666;23.350;2023-06-22T03:09:06;95361.00;;;18.46;100.00
55424;BME280;41294;42.666;23.350;2023-06-22T03:11:32;95348.59;;;18.43;100.00
55424;BME280;41294;42.666;23.350;2023-06-22T03:13:59;95357.75;;;18.31;100.00
55424;BME280;41294;42.666;23.350;2023-06-22T03:16:24;95364.91;;;18.51;100.00
55424;BME280;41294;42.666;23.350;2023-06-22T03:18:50;95375.13;;;18.63;100.00
55424;BME280;41294;42.666;23.350;2023-06-22T03:21:16;95368.59;;;18.70;100.00
55424;BME280;41294;42.666;23.350;2023-06-22T03:23:42;95372.00;;;18.70;100.00
55424;BME280;41294;42.666;23.350;2023-06-22T03:26:09;95379.31;;;18.81;100.00
55424;BME280;41294;42.666;23.350;2023-06-22T03:28:35;95371.34;;;18.86;100.00
55424;BME280;41294;42.666;23.350;2023-06-22T03:31:00;95370.38;;;18.84;100.00
55424;BME280;41294;42.666;23.350;2023-06-22T03:33:26;95373.72;;;18.79;100.00
55424;BME280;41294;42.666;23.350;2023-06-22T03:35:51;95376.94;;;18.88;100.00
55424;BME280;41294;42.666;23.350;2023-06-22T03:38:17;95383.75;;;18.95;100.00
55424;BME280;41294;42.666;23.350;2023-06-22T03:40:42;95387.16;;;19.00;100.00
55424;BME280;41294;42.666;23.350;2023-06-22T03:43:08;95386.75;;;19.13;100.00
55424;BME280;41294;42.666;23.350;2023-06-22T03:45:33;95390.88;;;19.14;99.95
55424;BME280;41294;42.666;23.350;2023-06-22T03:48:00;95396.72;;;19.29;99.69
55424;BME280;41294;42.666;23.350;2023-06-22T03:50:26;95398.53;;;19.81;97.95
55424;BME280;41294;42.666;23.350;2023-06-22T03:52:52;95392.88;;;20.56;93.84
55424;BME280;41294;42.666;23.350;2023-06-22T03:55:19;95398.38;;;20.90;90.54
55424;BME280;41294;42.666;23.350;2023-06-22T03:57:45;95409.47;;;21.16;89.07
55424;BME280;41294;42.666;23.350;2023-06-22T04:00:11;95404.44;;;21.48;87.21
55424;BME280;41294;42.666;23.350;2023-06-22T04:02:37;95404.75;;;21.79;85.66
55424;BME280;41294;42.666;23.350;2023-06-22T04:05:02;95402.38;;;21.70;85.57
55424;BME280;41294;42.666;23.350;2023-06-22T04:07:27;95415.44;;;21.39;87.23
55424;BME280;41294;42.666;23.350;2023-06-22T04:09:53;95411.28;;;21.43;87.07
55424;BME280;41294;42.666;23.350;2023-06-22T04:12:18;95406.63;;;21.49;86.87
55424;BME280;41294;42.666;23.350;2023-06-22T04:14:44;95392.94;;;21.93;85.33
55424;BME280;41294;42.666;23.350;2023-06-22T04:17:09;95395.22;;;22.13;83.18
55424;BME280;41294;42.666;23.350;2023-06-22T04:19:34;95388.31;;;22.46;82.48
55424;BME280;41294;42.666;23.350;2023-06-22T04:22:00;95389.84;;;22.42;80.00
55424;BME280;41294;42.666;23.350;2023-06-22T04:24:25;95386.34;;;22.52;80.63
55424;BME280;41294;42.666;23.350;2023-06-22T04:26:51;95388.06;;;22.74;79.34
55424;BME280;41294;42.666;23.350;2023-06-22T04:29:20;95368.56;;;22.92;77.75
55424;BME280;41294;42.666;23.350;2023-06-22T04:31:46;95373.75;;;22.66;78.73
55424;BME280;41294;42.666;23.350;2023-06-22T04:34:16;95371.25;;;22.92;76.33
55424;BME280;41294;42.666;23.350;2023-06-22T04:36:42;95372.06;;;23.23;75.86
55424;BME280;41294;42.666;23.350;2023-06-22T04:39:10;95384.09;;;22.56;78.47
55424;BME280;41294;42.666;23.350;2023-06-22T04:41:37;95375.81;;;22.54;79.16
55424;BME280;41294;42.666;23.350;2023-06-22T04:44:12;95369.50;;;22.76;78.70
55424;BME280;41294;42.666;23.350;2023-06-22T04:46:39;95374.75;;;23.60;75.42
55424;BME280;41294;42.666;23.350;2023-06-22T04:49:06;95381.09;;;23.94;72.50
55424;BME280;41294;42.666;23.350;2023-06-22T04:51:38;95369.66;;;24.19;71.77
55424;BME280;41294;42.666;23.350;2023-06-22T04:54:05;95381.75;;;24.44;71.48
55424;BME280;41294;42.666;23.350;2023-06-22T04:56:32;95393.47;;;24.60;71.30
55424;BME280;41294;42.666;23.350;2023-06-22T04:58:57;95397.50;;;24.79;69.83
55424;BME280;41294;42.666;23.350;2023-06-22T05:01:23;95403.41;;;25.16;68.53
55424;BME280;41294;42.666;23.350;2023-06-22T05:03:49;95394.47;;;25.21;68.36
55424;BME280;41294;42.666;23.350;2023-06-22T05:06:15;95392.81;;;25.31;66.80
55424;BME280;41294;42.666;23.350;2023-06-22T05:08:40;95403.97;;;25.35;65.97
55424;BME280;41294;42.666;23.350;2023-06-22T05:11:06;95395.69;;;25.33;66.33
55424;BME280;41294;42.666;23.350;2023-06-22T05:13:32;95398.13;;;25.57;63.95
55424;BME280;41294;42.666;23.350;2023-06-22T05:15:57;95396.06;;;25.83;64.01
55424;BME280;41294;42.666;23.350;2023-06-22T05:18:30;95392.72;;;26.11;63.32
55424;BME280;41294;42.666;23.350;2023-06-22T05:20:56;95386.28;;;25.93;63.08
55424;BME280;41294;42.666;23.350;2023-06-22T05:23:21;95385.22;;;25.96;63.12
55424;BME280;41294;42.666;23.350;2023-06-22T05:25:46;95390.47;;;26.22;62.95
55424;BME280;41294;42.666;23.350;2023-06-22T05:28:12;95403.88;;;26.56;61.86
55424;BME280;41294;42.666;23.350;2023-06-22T05:30:37;95393.47;;;26.60;61.08
55424;BME280;41294;42.666;23.350;2023-06-22T05:33:03;95398.25;;;26.74;61.40
55424;BME280;41294;42.666;23.350;2023-06-22T05:35:28;95413.06;;;27.08;60.29
55424;BME280;41294;42.666;23.350;2023-06-22T05:37:54;95410.94;;;27.14;59.76
55424;BME280;41294;42.666;23.350;2023-06-22T05:40:20;95407.69;;;27.16;59.56
55424;BME280;41294;42.666;23.350;2023-06-22T05:42:46;95420.63;;;27.45;58.58
55424;BME280;41294;42.666;23.350;2023-06-22T05:45:11;95421.25;;;27.66;58.37
55424;BME280;41294;42.666;23.350;2023-06-22T05:47:37;95429.25;;;27.86;57.83
55424;BME280;41294;42.666;23.350;2023-06-22T05:50:02;95431.75;;;27.84;57.67
55424;BME280;41294;42.666;23.350;2023-06-22T05:52:32;95431.31;;;28.23;56.71
55424;BME280;41294;42.666;23.350;2023-06-22T05:54:57;95426.09;;;26.89;59.21
55424;BME280;41294;42.666;23.350;2023-06-22T05:57:23;95424.53;;;27.29;58.03
55424;BME280;41294;42.666;23.350;2023-06-22T05:59:48;95428.03;;;27.52;57.71
55424;BME280;41294;42.666;23.350;2023-06-22T06:02:14;95424.38;;;27.35;57.65
55424;BME280;41294;42.666;23.350;2023-06-22T06:04:39;95420.06;;;27.39;57.59
55424;BME280;41294;42.666;23.350;2023-06-22T06:07:04;95416.66;;;28.19;56.22
55424;BME280;41294;42.666;23.350;2023-06-22T06:09:30;95421.38;;;28.70;54.88
55424;BME280;41294;42.666;23.350;2023-06-22T06:11:55;95413.81;;;28.46;55.75
55424;BME280;41294;42.666;23.350;2023-06-22T06:14:21;95417.31;;;27.32;58.70
55424;BME280;41294;42.666;23.350;2023-06-22T06:16:47;95404.56;;;27.47;58.20
55424;BME280;41294;42.666;23.350;2023-06-22T06:19:13;95404.97;;;26.53;60.02
55424;BME280;41294;42.666;23.350;2023-06-22T06:21:38;95405.22;;;25.80;62.87
55424;BME280;41294;42.666;23.350;2023-06-22T06:24:04;95397.63;;;26.61;61.09
55424;BME280;41294;42.666;23.350;2023-06-22T06:26:29;95402.00;;;27.34;58.28
55424;BME280;41294;42.666;23.350;2023-06-22T06:28:58;95404.94;;;28.31;55.77
55424;BME280;41294;42.666;23.350;2023-06-22T06:31:24;95401.13;;;28.86;54.26
55424;BME280;41294;42.666;23.350;2023-06-22T06:33:49;95410.47;;;29.08;53.51
55424;BME280;41294;42.666;23.350;2023-06-22T06:36:16;95405.94;;;29.57;51.83
55424;BME280;41294;42.666;23.350;2023-06-22T06:38:42;95399.13;;;29.80;50.39
55424;BME280;41294;42.666;23.350;2023-06-22T06:41:07;95402.91;;;29.85;49.98
55424;BME280;41294;42.666;23.350;2023-06-22T06:43:33;95396.41;;;30.12;50.24
55424;BME280;41294;42.666;23.350;2023-06-22T06:45:58;95397.66;;;29.87;50.28
55424;BME280;41294;42.666;23.350;2023-06-22T06:48:23;95395.00;;;29.72;49.99
55424;BME280;41294;42.666;23.350;2023-06-22T06:50:49;95391.47;;;29.08;52.34
55424;BME280;41294;42.666;23.350;2023-06-22T06:53:15;95388.75;;;29.08;52.26
55424;BME280;41294;42.666;23.350;2023-06-22T06:55:40;95381.63;;;28.58;53.45
55424;BME280;41294;42.666;23.350;2023-06-22T06:58:06;95374.75;;;28.05;54.74
55424;BME280;41294;42.666;23.350;2023-06-22T07:00:33;95372.84;;;26.77;57.93
55424;BME280;41294;42.666;23.350;2023-06-22T07:03:01;95375.94;;;26.46;60.04
55424;BME280;41294;42.666;23.350;2023-06-22T07:05:26;95384.78;;;26.81;58.81
55424;BME280;41294;42.666;23.350;2023-06-22T07:07:51;95371.91;;;26.39;60.60
55424;BME280;41294;42.666;23.350;2023-06-22T07:10:18;95380.16;;;26.62;60.79
55424;BME280;41294;42.666;23.350;2023-06-22T07:12:44;95383.97;;;27.37;57.48
55424;BME280;41294;42.666;23.350;2023-06-22T07:15:11;95381.63;;;28.21;54.96
55424;BME280;41294;42.666;23.350;2023-06-22T07:17:38;95381.94;;;28.92;53.84
55424;BME280;41294;42.666;23.350;2023-06-22T07:20:06;95386.66;;;29.77;50.92
55424;BME280;41294;42.666;23.350;2023-06-22T07:22:38;95389.13;;;30.39;49.53
55424;BME280;41294;42.666;23.350;2023-06-22T07:25:03;95385.78;;;30.89;49.17
55424;BME280;41294;42.666;23.350;2023-06-22T07:27:36;95379.22;;;30.92;48.64
55424;BME280;41294;42.666;23.350;2023-06-22T07:30:03;95382.34;;;31.22;48.48
55424;BME280;41294;42.666;23.350;2023-06-22T07:32:28;95378.16;;;31.55;47.12
55424;BME280;41294;42.666;23.350;2023-06-22T07:34:54;95378.59;;;32.14;46.74
55424;BME280;41294;42.666;23.350;2023-06-22T07:37:19;95379.38;;;31.97;46.55
55424;BME280;41294;42.666;23.350;2023-06-22T07:39:45;95378.03;;;31.89;46.38
55424;BME280;41294;42.666;23.350;2023-06-22T07:42:10;95374.97;;;31.32;46.57
55424;BME280;41294;42.666;23.350;2023-06-22T07:44:35;95380.72;;;31.36;48.16
55424;BME280;41294;42.666;23.350;2023-06-22T07:47:01;95378.59;;;32.14;47.09
55424;BME280;41294;42.666;23.350;2023-06-22T07:49:28;95380.00;;;32.51;44.11
55424;BME280;41294;42.666;23.350;2023-06-22T07:51:53;95381.16;;;31.76;45.23
55424;BME280;41294;42.666;23.350;2023-06-22T07:54:18;95384.59;;;31.77;47.15
55424;BME280;41294;42.666;23.350;2023-06-22T07:56:46;95376.94;;;31.05;48.12
55424;BME280;41294;42.666;23.350;2023-06-22T07:59:11;95379.81;;;31.51;46.52
55424;BME280;41294;42.666;23.350;2023-06-22T08:01:37;95378.16;;;32.08;45.48
55424;BME280;41294;42.666;23.350;2023-06-22T08:04:02;95371.00;;;32.58;44.15
55424;BME280;41294;42.666;23.350;2023-06-22T08:06:30;95369.72;;;32.68;44.22
55424;BME280;41294;42.666;23.350;2023-06-22T08:08:55;95365.25;;;32.63;43.81
55424;BME280;41294;42.666;23.350;2023-06-22T08:11:22;95356.69;;;33.14;43.03
55424;BME280;41294;42.666;23.350;2023-06-22T08:13:49;95362.97;;;33.07;43.30
55424;BME280;41294;42.666;23.350;2023-06-22T08:16:16;95362.41;;;32.80;43.87
55424;BME280;41294;42.666;23.350;2023-06-22T08:18:42;95356.78;;;31.35;46.21
55424;BME280;41294;42.666;23.350;2023-06-22T08:21:08;95351.13;;;31.23;46.77
55424;BME280;41294;42.666;23.350;2023-06-22T08:23:33;95351.53;;;31.63;46.55
55424;BME280;41294;42.666;23.350;2023-06-22T08:26:00;95350.22;;;31.55;45.73
55424;BME280;41294;42.666;23.350;2023-06-22T08:28:25;95341.25;;;31.71;45.59
55424;BME280;41294;42.666;23.350;2023-06-22T08:30:50;95342.94;;;32.38;45.15
55424;BME280;41294;42.666;23.350;2023-06-22T08:33:16;95342.56;;;32.51;44.04
55424;BME280;41294;42.666;23.350;2023-06-22T08:35:41;95339.69;;;31.51;46.40
55424;BME280;41294;42.666;23.350;2023-06-22T08:38:07;95345.66;;;31.40;46.95
55424;BME280;41294;42.666;23.350;2023-06-22T08:40:34;95349.06;;;31.84;46.37
55424;BME280;41294;42.666;23.350;2023-06-22T08:42:59;95343.47;;;32.18;45.50
55424;BME280;41294;42.666;23.350;2023-06-22T08:45:24;95346.25;;;32.46;45.26
55424;BME280;41294;42.666;23.350;2023-06-22T08:47:50;95357.50;;;32.60;45.00
55424;BME280;41294;42.666;23.350;2023-06-22T08:50:15;95356.16;;;32.42;44.89
55424;BME280;41294;42.666;23.350;2023-06-22T08:52:41;95340.16;;;32.19;43.95
55424;BME280;41294;42.666;23.350;2023-06-22T08:55:07;95348.47;;;32.67;43.97
55424;BME280;41294;42.666;23.350;2023-06-22T08:57:33;95350.63;;;33.25;42.20
55424;BME280;41294;42.666;23.350;2023-06-22T08:59:59;95347.66;;;33.79;41.36
55424;BME280;41294;42.666;23.350;2023-06-22T09:02:27;95332.84;;;32.86;41.55
55424;BME280;41294;42.666;23.350;2023-06-22T09:04:57;95329.66;;;32.80;42.28
55424;BME280;41294;42.666;23.350;2023-06-22T09:07:23;95328.91;;;32.06;43.97
55424;BME280;41294;42.666;23.350;2023-06-22T09:09:50;95322.13;;;32.43;42.87
55424;BME280;41294;42.666;23.350;2023-06-22T09:12:16;95327.78;;;33.30;41.22
55424;BME280;41294;42.666;23.350;2023-06-22T09:14:42;95332.00;;;33.12;40.94
55424;BME280;41294;42.666;23.350;2023-06-22T09:17:07;95330.19;;;33.45;41.37
55424;BME280;41294;42.666;23.350;2023-06-22T09:19:32;95328.97;;;34.16;40.52
55424;BME280;41294;42.666;23.350;2023-06-22T09:21:58;95330.72;;;34.83;39.54
55424;BME280;41294;42.666;23.350;2023-06-22T09:24:24;95324.09;;;35.19;38.30
55424;BME280;41294;42.666;23.350;2023-06-22T09:26:49;95324.16;;;35.41;37.34
55424;BME280;41294;42.666;23.350;2023-06-22T09:29:15;95326.09;;;35.50;36.53
55424;BME280;41294;42.666;23.350;2023-06-22T09:31:41;95330.09;;;35.38;36.22
55424;BME280;41294;42.666;23.350;2023-06-22T09:34:06;95336.31;;;35.38;36.24
55424;BME280;41294;42.666;23.350;2023-06-22T09:36:32;95336.06;;;35.46;36.44
55424;BME280;41294;42.666;23.350;2023-06-22T09:38:57;95329.94;;;35.25;37.39
55424;BME280;41294;42.666;23.350;2023-06-22T09:41:24;95337.19;;;35.20;36.77
55424;BME280;41294;42.666;23.350;2023-06-22T09:43:50;95330.53;;;34.70;37.90
55424;BME280;41294;42.666;23.350;2023-06-22T09:46:16;95332.19;;;34.03;38.46
55424;BME280;41294;42.666;23.350;2023-06-22T09:48:41;95332.75;;;34.62;37.88
55424;BME280;41294;42.666;23.350;2023-06-22T09:51:09;95323.97;;;35.17;37.45
55424;BME280;41294;42.666;23.350;2023-06-22T09:53:35;95318.16;;;35.22;37.59
55424;BME280;41294;42.666;23.350;2023-06-22T09:56:03;95317.84;;;32.49;41.45
55424;BME280;41294;42.666;23.350;2023-06-22T09:58:29;95312.75;;;32.17;42.78
55424;BME280;41294;42.666;23.350;2023-06-22T10:00:54;95306.63;;;32.45;42.28
55424;BME280;41294;42.666;23.350;2023-06-22T10:03:20;95303.47;;;31.84;45.16
55424;BME280;41294;42.666;23.350;2023-06-22T10:05:46;95304.63;;;31.91;43.71
55424;BME280;41294;42.666;23.350;2023-06-22T10:08:11;95306.94;;;31.59;44.48
55424;BME280;41294;42.666;23.350;2023-06-22T10:10:37;95299.25;;;31.74;43.89
55424;BME280;41294;42.666;23.350;2023-06-22T10:13:07;95302.59;;;31.82;44.56
55424;BME280;41294;42.666;23.350;2023-06-22T10:15:35;95300.22;;;32.88;42.16
55424;BME280;41294;42.666;23.350;2023-06-22T10:18:01;95299.09;;;33.10;41.89
55424;BME280;41294;42.666;23.350;2023-06-22T10:20:27;95301.06;;;33.77;40.75
55424;BME280;41294;42.666;23.350;2023-06-22T10:22:53;95303.34;;;34.21;39.19
55424;BME280;41294;42.666;23.350;2023-06-22T10:25:19;95305.25;;;34.60;38.32
55424;BME280;41294;42.666;23.350;2023-06-22T10:27:44;95304.34;;;34.67;37.61
55424;BME280;41294;42.666;23.350;2023-06-22T10:30:11;95300.50;;;34.60;37.24
55424;BME280;41294;42.666;23.350;2023-06-22T10:32:41;95297.19;;;33.80;37.93
55424;BME280;41294;42.666;23.350;2023-06-22T10:35:08;95296.44;;;33.40;39.34
55424;BME280;41294;42.666;23.350;2023-06-22T10:37:35;95289.78;;;33.53;38.30
55424;BME280;41294;42.666;23.350;2023-06-22T10:40:00;95285.22;;;33.36;38.74
55424;BME280;41294;42.666;23.350;2023-06-22T10:42:26;95273.63;;;31.86;41.18
55424;BME280;41294;42.666;23.350;2023-06-22T10:44:51;95277.69;;;31.33;43.00
55424;BME280;41294;42.666;23.350;2023-06-22T10:47:17;95270.56;;;32.09;41.88
55424;BME280;41294;42.666;23.350;2023-06-22T10:49:42;95277.97;;;32.63;40.45
55424;BME280;41294;42.666;23.350;2023-06-22T10:52:08;95275.16;;;33.39;40.18
55424;BME280;41294;42.666;23.350;2023-06-22T10:54:53;95269.06;;;32.91;38.74
55424;BME280;41294;42.666;23.350;2023-06-22T10:57:18;95276.38;;;32.79;39.23
55424;BME280;41294;42.666;23.350;2023-06-22T10:59:44;95268.41;;;32.07;40.37
55424;BME280;41294;42.666;23.350;2023-06-22T11:02:09;95271.19;;;32.45;39.67
55424;BME280;41294;42.666;23.350;2023-06-22T11:04:35;95264.69;;;32.12;41.05
55424;BME280;41294;42.666;23.350;2023-06-22T11:07:00;95272.41;;;31.35;43.06
55424;BME280;41294;42.666;23.350;2023-06-22T11:09:26;95266.84;;;32.14;41.16
55424;BME280;41294;42.666;23.350;2023-06-22T11:11:52;95267.09;;;31.10;42.52
55424;BME280;41294;42.666;23.350;2023-06-22T11:14:21;95264.38;;;31.10;42.96
55424;BME280;41294;42.666;23.350;2023-06-22T11:16:47;95262.06;;;31.60;41.23
55424;BME280;41294;42.666;23.350;2023-06-22T11:19:14;95261.63;;;30.84;43.33
55424;BME280;41294;42.666;23.350;2023-06-22T11:21:39;95252.25;;;31.47;42.59
55424;BME280;41294;42.666;23.350;2023-06-22T11:24:05;95252.94;;;32.48;41.34
55424;BME280;41294;42.666;23.350;2023-06-22T11:26:31;95245.09;;;32.42;41.20
55424;BME280;41294;42.666;23.350;2023-06-22T11:29:03;95242.19;;;32.31;40.48
55424;BME280;41294;42.666;23.350;2023-06-22T11:31:31;95242.13;;;31.93;41.51
55424;BME280;41294;42.666;23.350;2023-06-22T11:33:57;95246.09;;;32.47;41.34
55424;BME280;41294;42.666;23.350;2023-06-22T11:36:23;95249.06;;;33.07;39.31
55424;BME280;41294;42.666;23.350;2023-06-22T11:38:48;95251.78;;;33.17;38.27
55424;BME280;41294;42.666;23.350;2023-06-22T11:41:13;95250.63;;;33.20;38.47
55424;BME280;41294;42.666;23.350;2023-06-22T11:43:39;95252.88;;;33.33;39.43
55424;BME280;41294;42.666;23.350;2023-06-22T11:46:04;95248.16;;;33.24;40.39
55424;BME280;41294;42.666;23.350;2023-06-22T11:48:30;95233.13;;;32.57;39.89
55424;BME280;41294;42.666;23.350;2023-06-22T11:50:56;95235.72;;;32.92;39.65
55424;BME280;41294;42.666;23.350;2023-06-22T11:53:23;95239.72;;;33.20;38.28
55424;BME280;41294;42.666;23.350;2023-06-22T11:55:49;95229.56;;;32.92;37.71
55424;BME280;41294;42.666;23.350;2023-06-22T11:58:15;95226.69;;;32.71;38.07
55424;BME280;41294;42.666;23.350;2023-06-22T12:00:40;95224.41;;;32.77;39.54
55424;BME280;41294;42.666;23.350;2023-06-22T12:03:08;95219.03;;;33.17;39.65
55424;BME280;41294;42.666;23.350;2023-06-22T12:05:34;95229.91;;;33.26;40.54
55424;BME280;41294;42.666;23.350;2023-06-22T12:07:59;95237.38;;;33.26;39.28
55424;BME280;41294;42.666;23.350;2023-06-22T12:10:26;95231.28;;;32.40;39.16
55424;BME280;41294;42.666;23.350;2023-06-22T12:12:53;95229.94;;;32.03;39.64
55424;BME280;41294;42.666;23.350;2023-06-22T12:15:19;95236.81;;;32.04;40.60
55424;BME280;41294;42.666;23.350;2023-06-22T12:17:44;95240.16;;;32.22;41.27
55424;BME280;41294;42.666;23.350;2023-06-22T12:20:10;95243.19;;;32.35;41.88
55424;BME280;41294;42.666;23.350;2023-06-22T12:22:35;95248.91;;;32.20;42.14
55424;BME280;41294;42.666;23.350;2023-06-22T12:25:03;95255.44;;;31.89;43.03
55424;BME280;41294;42.666;23.350;2023-06-22T12:27:30;95249.16;;;30.64;45.53
55424;BME280;41294;42.666;23.350;2023-06-22T12:29:56;95260.56;;;29.07;50.85
55424;BME280;41294;42.666;23.350;2023-06-22T12:32:21;95267.94;;;28.67;52.46
55424;BME280;41294;42.666;23.350;2023-06-22T12:34:47;95282.50;;;28.94;51.78
55424;BME280;41294;42.666;23.350;2023-06-22T12:37:12;95278.91;;;29.23;53.34
55424;BME280;41294;42.666;23.350;2023-06-22T12:39:40;95285.56;;;29.37;54.37
55424;BME280;41294;42.666;23.350;2023-06-22T12:42:06;95280.81;;;29.45;54.42
55424;BME280;41294;42.666;23.350;2023-06-22T12:44:34;95285.38;;;29.28;54.60
55424;BME280;41294;42.666;23.350;2023-06-22T12:46:59;95272.41;;;29.19;54.49
55424;BME280;41294;42.666;23.350;2023-06-22T12:49:24;95283.84;;;29.10;55.89